Warning: Javascript must be enabled to use all the features on this page!


Page Loading - Please Wait...

Click to hideNews Bulletins

Peak Streamflow for the Nation

USGS 02423000 ALABAMA RIVER AT SELMA AL

Dallas County, Alabama
Hydrologic Unit Code 03150201
Latitude  32°24'20", Longitude  87°01'07" NAD27
Drainage area 17,095.00  square miles
Contributing drainage area 17,095  square miles
Gage datum 61.80 feet above NGVD29
Output formats
Table
Graph
Tab-separated file
peakfq (watstore) format
Reselect output format
Water
Year
Date Gage
Height
(feet)
Stream-
flow
(cfs)
1886 1886-04-08 57.00 248,0007
1891 1891-03-14 48.00 136,000
1892 1892-01-19 54.00 179,000
1893 1893-02-21 44.60 123,000
1894 1894-02-17 30.50 81,000
1895 1895-03-20 42.60 117,000
1896 1896-02-11 32.80 87,000
1897 1897-03-26 41.50 113,000
1898 1897-10-11 28.50 75,000
1899 1899-03-03 38.80 104,000
1900 1900-02-17 48.00 128,000
1901 1901-01-17 40.00 107,000
1902 1902-04-02 50.70 136,000
1903 1903-02-15 50.60 136,000
1904 1904-08-10 23.10 60,700
1905 1905-02-16 42.00 113,000
1906 1906-03-24 50.40 138,000
1907 1907-03-06 37.50 100,000
1908 1908-02-20 43.00 116,000
1909 1909-03-18 52.90 146,000
1910 1910-07-07 31.60 83,700
1911 1911-01-07 29.60 78,100
1912 1912-04-24 48.60 133,000
1913 1913-03-19 49.40 135,000
1914 1914-04-19 23.70 62,000
1915 1915-02-06 35.40 95,000
1916 1916-07-14 53.90 177,000
1917 1917-03-09 50.10 148,000
1918 1917-12-26 46.40 129,000
1919 1918-12-14 55.90 228,000
1920 1920-04-07 48.80 145,000
1921 1921-02-14 43.50 120,000
1922 1922-03-14 49.60 150,000
1923 1923-02-17 36.20 95,000
1924 1924-01-20 30.00 76,000
1925 1925-01-22 53.60 190,0005
1926 1926-01-09 36.80 97,0005
1927 1927-02-17 37.80 101,0005
1928 1928-04-27   141,0005
1929 1929-03-19 55.52 220,0005
1930 1929-11-20 50.42 161,0005
1931 1930-11-20 27.85 68,5005
1932 1932-02-25 37.08 93,8005
1933 1933-01-01 50.76 164,0005
1934 1934-03-08 41.29 108,0005
1935 1935-03-10 36.73 92,6005
1936 1936-02-10 53.10 177,0005
1937 1937-05-06 42.32 117,0005
1938 1938-04-12 55.40 218,0005
1939 1939-08-19 53.81 151,0005
1940 1940-03-17 34.77 91,2005
1941 1941-03-10 19.55 44,9005
1942 1942-03-25 44.24 123,0005
1943 1943-03-25 52.40 165,0005
1944 1944-04-28 49.802 153,0005
1945 1945-02-23 37.90 103,0005
1946 1946-01-10 46.802 139,0005
1947 1947-01-23 49.902 153,0005
1948 1948-02-15 40.70 111,0005
1949 1948-12-03 56.00 230,0005
1950 1950-03-17 30.902 79,6005
1951 1951-04-02 48.00 139,0005
1952 1952-03-27 37.23 101,0005
1953 1953-05-10 40.20 112,0005
1954 1954-01-25 29.70 76,1005
1955 1955-04-16 42.802 123,0005
1956 1956-03-18 43.002 129,0005
1957 1957-04-09 49.27 148,0005
1958 1958-03-10 39.582 110,0005
1959 1959-02-18 23.70 57,9005
1960 1960-04-06 36.30 97,2005
1961 1961-03-01 57.97 284,0005
1962 1961-12-22 51.20 158,0005
1963 1963-05-05 35.35 105,0005
1964 1964-04-12 53.39 199,0005
1965 1965-02-19 33.60 97,0005
1966 1966-02-19 45.80 130,0005
1967 1967-08-29 28.70 77,1005
1968 1968-01-13 33.03 88,7005
1969 1969-05-22 32.95 90,1005
1970 1970-03-25 44.17 125,0005
1971 1971-03-06 49.08 167,0005
1972 1972-01-13 47.73 150,0005
1973 1973-04-03 46.21 138,0005
1974 1974-01-04 36.71 98,0005
1975 1975-03-21 44.43 126,0005
1976 1976-04-03 49.83 178,0005
1977 1977-04-03 48.19 157,0005
1979 1979-04-18 55.02 250,0005
1980 1980-04-01 49.38 174,0005
1981 1981-04-03 42.34 117,0005
1982 1982-02-05 46.28 137,0005
1983 1983-04-11 49.22 170,0005
1984 1983-12-08 44.91 130,0005
1985 1985-02-07 38.49 105,0002,5
1986 1986-03-22 29.87 79,0002,5
1987 1987-03-02 41.11 110,0005
1989 1989-06-24 48.00 155,0005
1990 1990-03-21 56.80 280,0005
1991 1991-04-01 36.98  
1992 1992-02-28 35.35  
1993 1992-12-19 40.36  
1994 1994-04-18 35.64  
1995 1995-03-10 40.76  
1996 1996-03-10 47.00  
1997 1997-03-03 40.68  
1998 1998-03-11 48.64  
1999 1999-02-01 40.40  
2000 2000-04-07 37.40  
2001 2001-03-23 43.46  
2002 2002-01-27 32.89  
2003 2003-05-12 44.42  
2004 2004-09-18 34.95  
2005 2005-04-03 48.97  
2006 2006-03-22 31.52  
2007 2006-11-17 28.64  
2008 2008-08-27 30.29  
2009 2009-03-29 44.07  
2010 2010-03-14 45.99  
2011 2011-03-11 41.57  
2012 2012-03-05    
2013 2013-02-14    
2014 2014-04-10    
2015 2015-01-06    
2016 2015-12-28    
2017 2017-06-25    
2018 2018-05-31 35.78  
2019 2018-12-31 44.87  
2020 2020-03-08 50.00  
?
  Peak Gage-Height Qualification Codes.
?
  Peak Streamflow Qualification Codes.